sensor_id;sensor_type;location;lat;lon;timestamp;P1;durP1;ratioP1;P2;durP2;ratioP2
46505;SDS011;32220;49.808;9.968;2022-10-13T00:01:39;18.87;;;13.40;;
46505;SDS011;32220;49.808;9.968;2022-10-13T00:04:07;18.30;;;13.93;;
46505;SDS011;32220;49.808;9.968;2022-10-13T00:06:35;19.43;;;13.87;;
46505;SDS011;32220;49.808;9.968;2022-10-13T00:09:02;18.50;;;14.60;;
46505;SDS011;32220;49.808;9.968;2022-10-13T00:11:31;19.03;;;14.23;;
46505;SDS011;32220;49.808;9.968;2022-10-13T00:14:00;18.50;;;13.73;;
46505;SDS011;32220;49.808;9.968;2022-10-13T00:16:29;20.73;;;15.23;;
46505;SDS011;32220;49.808;9.968;2022-10-13T00:18:58;22.87;;;16.50;;
46505;SDS011;32220;49.808;9.968;2022-10-13T00:21:26;17.93;;;14.63;;
46505;SDS011;32220;49.808;9.968;2022-10-13T00:23:54;17.87;;;14.50;;
46505;SDS011;32220;49.808;9.968;2022-10-13T00:26:23;16.83;;;12.90;;
46505;SDS011;32220;49.808;9.968;2022-10-13T00:28:54;18.17;;;14.17;;
46505;SDS011;32220;49.808;9.968;2022-10-13T00:31:22;18.03;;;13.87;;
46505;SDS011;32220;49.808;9.968;2022-10-13T00:33:51;17.90;;;14.07;;
46505;SDS011;32220;49.808;9.968;2022-10-13T00:36:20;16.73;;;13.20;;
46505;SDS011;32220;49.808;9.968;2022-10-13T00:38:48;19.93;;;13.50;;
46505;SDS011;32220;49.808;9.968;2022-10-13T00:41:17;16.60;;;13.30;;
46505;SDS011;32220;49.808;9.968;2022-10-13T00:43:52;18.83;;;13.60;;
46505;SDS011;32220;49.808;9.968;2022-10-13T00:46:25;17.67;;;13.97;;
46505;SDS011;32220;49.808;9.968;2022-10-13T00:48:59;16.83;;;13.50;;
46505;SDS011;32220;49.808;9.968;2022-10-13T00:51:30;17.63;;;13.60;;
46505;SDS011;32220;49.808;9.968;2022-10-13T00:54:01;14.00;;;11.57;;
46505;SDS011;32220;49.808;9.968;2022-10-13T00:56:32;16.97;;;12.87;;
46505;SDS011;32220;49.808;9.968;2022-10-13T00:59:02;13.43;;;11.30;;
46505;SDS011;32220;49.808;9.968;2022-10-13T01:01:31;15.33;;;12.30;;
46505;SDS011;32220;49.808;9.968;2022-10-13T01:03:59;15.67;;;11.60;;
46505;SDS011;32220;49.808;9.968;2022-10-13T01:06:26;16.67;;;12.40;;
46505;SDS011;32220;49.808;9.968;2022-10-13T01:08:54;15.77;;;12.23;;
46505;SDS011;32220;49.808;9.968;2022-10-13T01:11:24;19.07;;;13.37;;
46505;SDS011;32220;49.808;9.968;2022-10-13T01:14:05;17.70;;;13.73;;
46505;SDS011;32220;49.808;9.968;2022-10-13T01:16:43;19.47;;;14.47;;
46505;SDS011;32220;49.808;9.968;2022-10-13T01:19:24;19.27;;;13.53;;
46505;SDS011;32220;49.808;9.968;2022-10-13T01:22:12;16.23;;;12.40;;
46505;SDS011;32220;49.808;9.968;2022-10-13T01:24:53;16.60;;;12.97;;
46505;SDS011;32220;49.808;9.968;2022-10-13T01:27:37;17.33;;;12.97;;
46505;SDS011;32220;49.808;9.968;2022-10-13T01:30:19;14.87;;;11.60;;
46505;SDS011;32220;49.808;9.968;2022-10-13T01:32:53;16.17;;;12.57;;
46505;SDS011;32220;49.808;9.968;2022-10-13T01:35:41;13.93;;;11.37;;
46505;SDS011;32220;49.808;9.968;2022-10-13T01:38:22;13.43;;;11.20;;
46505;SDS011;32220;49.808;9.968;2022-10-13T01:40:58;17.60;;;12.20;;
46505;SDS011;32220;49.808;9.968;2022-10-13T01:43:31;15.73;;;12.97;;
46505;SDS011;32220;49.808;9.968;2022-10-13T01:46:04;14.03;;;12.00;;
46505;SDS011;32220;49.808;9.968;2022-10-13T01:48:37;14.00;;;11.20;;
46505;SDS011;32220;49.808;9.968;2022-10-13T01:51:06;14.30;;;11.47;;
46505;SDS011;32220;49.808;9.968;2022-10-13T01:53:38;12.83;;;10.30;;
46505;SDS011;32220;49.808;9.968;2022-10-13T01:56:06;13.80;;;10.23;;
46505;SDS011;32220;49.808;9.968;2022-10-13T01:58:34;16.67;;;11.50;;
46505;SDS011;32220;49.808;9.968;2022-10-13T02:01:13;13.03;;;9.97;;
46505;SDS011;32220;49.808;9.968;2022-10-13T02:03:55;13.17;;;11.27;;
46505;SDS011;32220;49.808;9.968;2022-10-13T02:06:35;15.17;;;11.87;;
46505;SDS011;32220;49.808;9.968;2022-10-13T02:09:09;13.73;;;10.53;;
46505;SDS011;32220;49.808;9.968;2022-10-13T02:11:42;21.97;;;15.40;;
46505;SDS011;32220;49.808;9.968;2022-10-13T02:14:17;16.30;;;11.20;;
46505;SDS011;32220;49.808;9.968;2022-10-13T02:16:50;16.53;;;11.87;;
46505;SDS011;32220;49.808;9.968;2022-10-13T02:19:20;17.23;;;13.30;;
46505;SDS011;32220;49.808;9.968;2022-10-13T02:21:49;17.83;;;12.80;;
46505;SDS011;32220;49.808;9.968;2022-10-13T02:24:18;17.53;;;13.47;;
46505;SDS011;32220;49.808;9.968;2022-10-13T02:26:46;14.73;;;11.37;;
46505;SDS011;32220;49.808;9.968;2022-10-13T02:29:18;18.93;;;14.20;;
46505;SDS011;32220;49.808;9.968;2022-10-13T02:31:46;21.77;;;14.53;;
46505;SDS011;32220;49.808;9.968;2022-10-13T02:34:15;19.30;;;13.53;;
46505;SDS011;32220;49.808;9.968;2022-10-13T02:36:45;15.93;;;12.47;;
46505;SDS011;32220;49.808;9.968;2022-10-13T02:39:13;16.30;;;12.67;;
46505;SDS011;32220;49.808;9.968;2022-10-13T02:41:41;15.63;;;11.47;;
46505;SDS011;32220;49.808;9.968;2022-10-13T02:44:09;16.60;;;12.47;;
46505;SDS011;32220;49.808;9.968;2022-10-13T02:46:40;14.80;;;10.73;;
46505;SDS011;32220;49.808;9.968;2022-10-13T02:49:08;14.97;;;11.83;;
46505;SDS011;32220;49.808;9.968;2022-10-13T02:51:37;17.87;;;12.60;;
46505;SDS011;32220;49.808;9.968;2022-10-13T02:54:05;14.87;;;11.20;;
46505;SDS011;32220;49.808;9.968;2022-10-13T02:56:33;14.90;;;11.00;;
46505;SDS011;32220;49.808;9.968;2022-10-13T02:59:00;13.40;;;10.83;;
46505;SDS011;32220;49.808;9.968;2022-10-13T03:01:28;14.43;;;11.53;;
46505;SDS011;32220;49.808;9.968;2022-10-13T03:03:56;16.53;;;11.30;;
46505;SDS011;32220;49.808;9.968;2022-10-13T03:06:24;15.40;;;11.70;;
46505;SDS011;32220;49.808;9.968;2022-10-13T03:08:53;16.40;;;12.67;;
46505;SDS011;32220;49.808;9.968;2022-10-13T03:11:21;18.10;;;11.27;;
46505;SDS011;32220;49.808;9.968;2022-10-13T03:13:49;14.43;;;11.77;;
46505;SDS011;32220;49.808;9.968;2022-10-13T03:16:16;17.37;;;11.57;;
46505;SDS011;32220;49.808;9.968;2022-10-13T03:18:44;15.63;;;12.07;;
46505;SDS011;32220;49.808;9.968;2022-10-13T03:21:11;18.90;;;11.87;;
46505;SDS011;32220;49.808;9.968;2022-10-13T03:23:39;16.83;;;11.03;;
46505;SDS011;32220;49.808;9.968;2022-10-13T03:26:08;21.03;;;12.80;;
46505;SDS011;32220;49.808;9.968;2022-10-13T03:28:36;17.13;;;13.13;;
46505;SDS011;32220;49.808;9.968;2022-10-13T03:31:05;21.30;;;14.63;;
46505;SDS011;32220;49.808;9.968;2022-10-13T03:33:34;23.17;;;14.37;;
46505;SDS011;32220;49.808;9.968;2022-10-13T03:36:04;21.10;;;15.27;;
46505;SDS011;32220;49.808;9.968;2022-10-13T03:38:33;20.73;;;14.63;;
46505;SDS011;32220;49.808;9.968;2022-10-13T03:41:05;18.47;;;13.60;;
46505;SDS011;32220;49.808;9.968;2022-10-13T03:43:35;20.73;;;14.00;;
46505;SDS011;32220;49.808;9.968;2022-10-13T03:46:03;21.57;;;14.80;;
46505;SDS011;32220;49.808;9.968;2022-10-13T03:48:32;20.27;;;14.27;;
46505;SDS011;32220;49.808;9.968;2022-10-13T03:51:03;21.80;;;14.60;;
46505;SDS011;32220;49.808;9.968;2022-10-13T03:53:31;18.27;;;13.43;;
46505;SDS011;32220;49.808;9.968;2022-10-13T03:55:59;20.17;;;13.33;;
46505;SDS011;32220;49.808;9.968;2022-10-13T03:58:28;21.67;;;14.97;;
46505;SDS011;32220;49.808;9.968;2022-10-13T04:01:00;18.33;;;13.10;;
46505;SDS011;32220;49.808;9.968;2022-10-13T04:03:29;19.53;;;12.63;;
46505;SDS011;32220;49.808;9.968;2022-10-13T04:05:58;20.27;;;13.07;;
46505;SDS011;32220;49.808;9.968;2022-10-13T04:08:26;23.63;;;15.30;;
46505;SDS011;32220;49.808;9.968;2022-10-13T04:10:58;22.27;;;15.20;;
46505;SDS011;32220;49.808;9.968;2022-10-13T04:13:26;24.40;;;15.67;;
46505;SDS011;32220;49.808;9.968;2022-10-13T04:15:54;21.50;;;15.00;;
46505;SDS011;32220;49.808;9.968;2022-10-13T04:18:23;19.07;;;13.70;;
46505;SDS011;32220;49.808;9.968;2022-10-13T04:20:50;23.10;;;15.33;;
46505;SDS011;32220;49.808;9.968;2022-10-13T04:23:18;17.40;;;12.67;;
46505;SDS011;32220;49.808;9.968;2022-10-13T04:25:46;20.80;;;14.33;;
46505;SDS011;32220;49.808;9.968;2022-10-13T04:28:14;19.80;;;14.33;;
46505;SDS011;32220;49.808;9.968;2022-10-13T04:30:41;21.40;;;14.47;;
46505;SDS011;32220;49.808;9.968;2022-10-13T04:33:09;20.03;;;13.53;;
46505;SDS011;32220;49.808;9.968;2022-10-13T04:35:39;17.90;;;13.30;;
46505;SDS011;32220;49.808;9.968;2022-10-13T04:38:08;18.43;;;12.67;;
46505;SDS011;32220;49.808;9.968;2022-10-13T04:40:36;21.17;;;13.17;;
46505;SDS011;32220;49.808;9.968;2022-10-13T04:43:03;18.53;;;12.40;;
46505;SDS011;32220;49.808;9.968;2022-10-13T04:45:31;21.60;;;14.30;;
46505;SDS011;32220;49.808;9.968;2022-10-13T04:47:59;25.33;;;17.03;;
46505;SDS011;32220;49.808;9.968;2022-10-13T04:50:27;24.70;;;15.83;;
46505;SDS011;32220;49.808;9.968;2022-10-13T04:53:01;24.17;;;16.53;;
46505;SDS011;32220;49.808;9.968;2022-10-13T04:55:28;27.17;;;19.10;;
46505;SDS011;32220;49.808;9.968;2022-10-13T04:57:56;21.53;;;15.93;;
46505;SDS011;32220;49.808;9.968;2022-10-13T05:00:24;23.33;;;15.77;;
46505;SDS011;32220;49.808;9.968;2022-10-13T05:02:52;23.50;;;17.03;;
46505;SDS011;32220;49.808;9.968;2022-10-13T05:05:19;22.97;;;16.23;;
46505;SDS011;32220;49.808;9.968;2022-10-13T05:07:47;22.90;;;15.93;;
46505;SDS011;32220;49.808;9.968;2022-10-13T05:10:16;23.23;;;16.07;;
46505;SDS011;32220;49.808;9.968;2022-10-13T05:12:44;20.97;;;15.30;;
46505;SDS011;32220;49.808;9.968;2022-10-13T05:15:12;22.43;;;16.27;;
46505;SDS011;32220;49.808;9.968;2022-10-13T05:17:40;20.50;;;15.27;;
46505;SDS011;32220;49.808;9.968;2022-10-13T05:20:08;17.37;;;13.03;;
46505;SDS011;32220;49.808;9.968;2022-10-13T05:22:36;19.67;;;13.03;;
46505;SDS011;32220;49.808;9.968;2022-10-13T05:25:04;18.53;;;13.37;;
46505;SDS011;32220;49.808;9.968;2022-10-13T05:27:34;18.90;;;14.37;;
46505;SDS011;32220;49.808;9.968;2022-10-13T05:30:04;18.27;;;12.83;;
46505;SDS011;32220;49.808;9.968;2022-10-13T05:32:33;17.97;;;13.33;;
46505;SDS011;32220;49.808;9.968;2022-10-13T05:35:00;20.80;;;13.97;;
46505;SDS011;32220;49.808;9.968;2022-10-13T05:37:29;21.00;;;14.93;;
46505;SDS011;32220;49.808;9.968;2022-10-13T05:39:56;22.40;;;14.93;;
46505;SDS011;32220;49.808;9.968;2022-10-13T05:42:24;17.90;;;13.83;;
46505;SDS011;32220;49.808;9.968;2022-10-13T05:44:56;16.60;;;13.37;;
46505;SDS011;32220;49.808;9.968;2022-10-13T05:47:24;20.43;;;13.47;;
46505;SDS011;32220;49.808;9.968;2022-10-13T05:49:55;18.40;;;14.07;;
46505;SDS011;32220;49.808;9.968;2022-10-13T05:52:23;18.03;;;13.60;;
46505;SDS011;32220;49.808;9.968;2022-10-13T05:54:55;19.23;;;14.30;;
46505;SDS011;32220;49.808;9.968;2022-10-13T05:57:25;19.30;;;13.60;;
46505;SDS011;32220;49.808;9.968;2022-10-13T05:59:57;18.27;;;13.53;;
46505;SDS011;32220;49.808;9.968;2022-10-13T06:02:38;20.87;;;14.37;;
46505;SDS011;32220;49.808;9.968;2022-10-13T06:05:12;17.07;;;12.70;;
46505;SDS011;32220;49.808;9.968;2022-10-13T06:07:42;19.77;;;14.67;;
46505;SDS011;32220;49.808;9.968;2022-10-13T06:10:13;16.50;;;12.43;;
46505;SDS011;32220;49.808;9.968;2022-10-13T06:12:41;16.47;;;11.30;;
46505;SDS011;32220;49.808;9.968;2022-10-13T06:15:11;16.20;;;11.00;;
46505;SDS011;32220;49.808;9.968;2022-10-13T06:17:39;19.97;;;12.90;;
46505;SDS011;32220;49.808;9.968;2022-10-13T06:20:07;17.83;;;13.70;;
46505;SDS011;32220;49.808;9.968;2022-10-13T06:22:36;16.00;;;12.70;;
46505;SDS011;32220;49.808;9.968;2022-10-13T06:25:05;17.83;;;12.53;;
46505;SDS011;32220;49.808;9.968;2022-10-13T06:27:34;18.97;;;12.33;;
46505;SDS011;32220;49.808;9.968;2022-10-13T06:30:02;22.70;;;15.50;;
46505;SDS011;32220;49.808;9.968;2022-10-13T06:32:31;20.07;;;14.13;;
46505;SDS011;32220;49.808;9.968;2022-10-13T06:35:00;18.00;;;12.73;;
46505;SDS011;32220;49.808;9.968;2022-10-13T06:37:28;19.57;;;14.00;;
46505;SDS011;32220;49.808;9.968;2022-10-13T06:39:55;20.17;;;13.73;;
46505;SDS011;32220;49.808;9.968;2022-10-13T06:42:23;19.97;;;13.43;;
46505;SDS011;32220;49.808;9.968;2022-10-13T06:45:07;22.03;;;14.03;;
46505;SDS011;32220;49.808;9.968;2022-10-13T06:47:40;19.37;;;13.17;;
46505;SDS011;32220;49.808;9.968;2022-10-13T06:50:08;20.20;;;13.23;;
46505;SDS011;32220;49.808;9.968;2022-10-13T06:52:36;19.63;;;14.20;;
46505;SDS011;32220;49.808;9.968;2022-10-13T06:55:04;20.43;;;14.97;;
46505;SDS011;32220;49.808;9.968;2022-10-13T06:57:34;24.13;;;16.23;;
46505;SDS011;32220;49.808;9.968;2022-10-13T07:00:05;25.03;;;15.87;;
46505;SDS011;32220;49.808;9.968;2022-10-13T07:02:34;22.93;;;15.13;;
46505;SDS011;32220;49.808;9.968;2022-10-13T07:05:04;25.57;;;16.47;;
46505;SDS011;32220;49.808;9.968;2022-10-13T07:07:32;21.00;;;14.87;;
46505;SDS011;32220;49.808;9.968;2022-10-13T07:10:00;22.00;;;14.67;;
46505;SDS011;32220;49.808;9.968;2022-10-13T07:12:28;28.77;;;19.83;;
46505;SDS011;32220;49.808;9.968;2022-10-13T07:14:56;26.70;;;18.20;;
46505;SDS011;32220;49.808;9.968;2022-10-13T07:17:23;22.70;;;17.03;;
46505;SDS011;32220;49.808;9.968;2022-10-13T07:19:51;24.43;;;16.57;;
46505;SDS011;32220;49.808;9.968;2022-10-13T07:22:20;25.77;;;16.17;;
46505;SDS011;32220;49.808;9.968;2022-10-13T07:24:48;27.17;;;17.93;;
46505;SDS011;32220;49.808;9.968;2022-10-13T07:27:17;29.53;;;16.93;;
46505;SDS011;32220;49.808;9.968;2022-10-13T07:29:44;27.37;;;17.67;;
46505;SDS011;32220;49.808;9.968;2022-10-13T07:32:12;23.43;;;15.07;;
46505;SDS011;32220;49.808;9.968;2022-10-13T07:34:40;21.50;;;15.27;;
46505;SDS011;32220;49.808;9.968;2022-10-13T07:37:08;22.73;;;14.43;;
46505;SDS011;32220;49.808;9.968;2022-10-13T07:39:38;24.30;;;15.60;;
46505;SDS011;32220;49.808;9.968;2022-10-13T07:42:06;22.57;;;15.20;;
46505;SDS011;32220;49.808;9.968;2022-10-13T07:44:34;22.83;;;14.13;;
46505;SDS011;32220;49.808;9.968;2022-10-13T07:47:01;27.13;;;15.20;;
46505;SDS011;32220;49.808;9.968;2022-10-13T07:49:29;23.07;;;14.30;;
46505;SDS011;32220;49.808;9.968;2022-10-13T07:51:58;25.47;;;14.77;;
46505;SDS011;32220;49.808;9.968;2022-10-13T07:54:26;18.87;;;12.33;;
46505;SDS011;32220;49.808;9.968;2022-10-13T07:56:56;25.23;;;15.33;;
46505;SDS011;32220;49.808;9.968;2022-10-13T07:59:23;22.33;;;14.53;;
46505;SDS011;32220;49.808;9.968;2022-10-13T08:01:51;27.57;;;16.77;;
46505;SDS011;32220;49.808;9.968;2022-10-13T08:04:19;22.20;;;13.87;;
46505;SDS011;32220;49.808;9.968;2022-10-13T08:06:47;23.93;;;15.00;;
46505;SDS011;32220;49.808;9.968;2022-10-13T08:09:15;26.73;;;16.67;;
46505;SDS011;32220;49.808;9.968;2022-10-13T08:11:42;22.70;;;14.37;;
46505;SDS011;32220;49.808;9.968;2022-10-13T08:14:12;23.70;;;16.23;;
46505;SDS011;32220;49.808;9.968;2022-10-13T08:16:40;22.53;;;14.40;;
46505;SDS011;32220;49.808;9.968;2022-10-13T08:19:11;21.40;;;15.50;;
46505;SDS011;32220;49.808;9.968;2022-10-13T08:21:39;20.17;;;13.77;;
46505;SDS011;32220;49.808;9.968;2022-10-13T08:24:08;22.63;;;15.73;;
46505;SDS011;32220;49.808;9.968;2022-10-13T08:26:37;22.77;;;14.30;;
46505;SDS011;32220;49.808;9.968;2022-10-13T08:29:05;20.23;;;13.83;;
46505;SDS011;32220;49.808;9.968;2022-10-13T08:31:35;24.30;;;15.03;;
46505;SDS011;32220;49.808;9.968;2022-10-13T08:34:02;18.20;;;13.57;;
46505;SDS011;32220;49.808;9.968;2022-10-13T08:36:30;21.13;;;14.43;;
46505;SDS011;32220;49.808;9.968;2022-10-13T08:38:58;18.93;;;13.93;;
46505;SDS011;32220;49.808;9.968;2022-10-13T08:41:27;29.67;;;15.90;;
46505;SDS011;32220;49.808;9.968;2022-10-13T08:44:02;22.20;;;14.30;;
46505;SDS011;32220;49.808;9.968;2022-10-13T08:46:32;17.73;;;12.70;;
46505;SDS011;32220;49.808;9.968;2022-10-13T08:49:09;19.30;;;13.60;;
46505;SDS011;32220;49.808;9.968;2022-10-13T08:51:39;20.83;;;13.20;;
46505;SDS011;32220;49.808;9.968;2022-10-13T08:54:08;22.50;;;15.10;;
46505;SDS011;32220;49.808;9.968;2022-10-13T08:56:38;18.10;;;13.10;;
46505;SDS011;32220;49.808;9.968;2022-10-13T08:59:08;16.03;;;13.00;;
46505;SDS011;32220;49.808;9.968;2022-10-13T09:01:43;17.43;;;12.53;;
46505;SDS011;32220;49.808;9.968;2022-10-13T09:04:23;18.73;;;13.37;;
46505;SDS011;32220;49.808;9.968;2022-10-13T09:07:01;17.23;;;13.77;;
46505;SDS011;32220;49.808;9.968;2022-10-13T09:09:32;16.93;;;12.97;;
46505;SDS011;32220;49.808;9.968;2022-10-13T09:12:00;15.90;;;12.87;;
46505;SDS011;32220;49.808;9.968;2022-10-13T09:14:29;14.13;;;11.23;;
46505;SDS011;32220;49.808;9.968;2022-10-13T09:17:12;17.77;;;13.10;;
46505;SDS011;32220;49.808;9.968;2022-10-13T09:19:42;20.20;;;14.27;;
46505;SDS011;32220;49.808;9.968;2022-10-13T09:22:18;17.90;;;12.50;;
46505;SDS011;32220;49.808;9.968;2022-10-13T09:25:05;17.47;;;12.33;;
46505;SDS011;32220;49.808;9.968;2022-10-13T09:27:40;20.20;;;14.60;;
46505;SDS011;32220;49.808;9.968;2022-10-13T09:30:27;20.03;;;14.63;;
46505;SDS011;32220;49.808;9.968;2022-10-13T09:33:20;16.53;;;12.33;;
46505;SDS011;32220;49.808;9.968;2022-10-13T09:36:06;19.30;;;14.10;;
46505;SDS011;32220;49.808;9.968;2022-10-13T09:41:32;20.43;;;15.13;;
46505;SDS011;32220;49.808;9.968;2022-10-13T09:44:07;18.30;;;13.40;;
46505;SDS011;32220;49.808;9.968;2022-10-13T09:46:38;15.33;;;11.73;;
46505;SDS011;32220;49.808;9.968;2022-10-13T09:49:32;16.47;;;12.43;;
46505;SDS011;32220;49.808;9.968;2022-10-13T09:52:11;17.87;;;13.40;;
46505;SDS011;32220;49.808;9.968;2022-10-13T09:54:43;19.17;;;12.57;;
46505;SDS011;32220;49.808;9.968;2022-10-13T09:57:19;19.80;;;13.03;;
46505;SDS011;32220;49.808;9.968;2022-10-13T09:59:57;16.97;;;13.47;;
46505;SDS011;32220;49.808;9.968;2022-10-13T10:02:39;18.97;;;13.47;;
46505;SDS011;32220;49.808;9.968;2022-10-13T10:05:28;16.90;;;13.60;;
46505;SDS011;32220;49.808;9.968;2022-10-13T10:08:10;16.50;;;12.77;;
46505;SDS011;32220;49.808;9.968;2022-10-13T10:10:42;18.67;;;14.50;;
46505;SDS011;32220;49.808;9.968;2022-10-13T10:13:12;14.87;;;12.00;;
46505;SDS011;32220;49.808;9.968;2022-10-13T10:15:43;17.87;;;12.63;;
46505;SDS011;32220;49.808;9.968;2022-10-13T10:18:20;15.80;;;12.27;;
46505;SDS011;32220;49.808;9.968;2022-10-13T10:21:02;16.27;;;11.90;;
46505;SDS011;32220;49.808;9.968;2022-10-13T10:23:45;15.10;;;10.97;;
46505;SDS011;32220;49.808;9.968;2022-10-13T10:26:19;12.90;;;9.93;;
46505;SDS011;32220;49.808;9.968;2022-10-13T10:28:55;14.10;;;9.37;;
46505;SDS011;32220;49.808;9.968;2022-10-13T10:31:36;13.37;;;10.00;;
46505;SDS011;32220;49.808;9.968;2022-10-13T10:34:21;12.30;;;9.17;;
46505;SDS011;32220;49.808;9.968;2022-10-13T10:37:02;13.77;;;10.13;;
46505;SDS011;32220;49.808;9.968;2022-10-13T10:39:40;12.20;;;9.23;;
46505;SDS011;32220;49.808;9.968;2022-10-13T10:42:30;14.37;;;9.70;;
46505;SDS011;32220;49.808;9.968;2022-10-13T10:45:16;11.90;;;8.77;;
46505;SDS011;32220;49.808;9.968;2022-10-13T10:47:45;11.57;;;8.40;;
46505;SDS011;32220;49.808;9.968;2022-10-13T10:50:19;13.33;;;9.90;;
46505;SDS011;32220;49.808;9.968;2022-10-13T10:52:52;10.40;;;8.93;;
46505;SDS011;32220;49.808;9.968;2022-10-13T10:55:28;14.40;;;8.33;;
46505;SDS011;32220;49.808;9.968;2022-10-13T10:58:05;12.87;;;8.93;;
46505;SDS011;32220;49.808;9.968;2022-10-13T11:00:44;10.87;;;9.27;;
46505;SDS011;32220;49.808;9.968;2022-10-13T11:03:21;14.53;;;8.23;;
46505;SDS011;32220;49.808;9.968;2022-10-13T11:06:02;11.77;;;8.23;;
46505;SDS011;32220;49.808;9.968;2022-10-13T11:11:36;13.77;;;8.17;;
46505;SDS011;32220;49.808;9.968;2022-10-13T11:17:08;10.03;;;8.87;;
46505;SDS011;32220;49.808;9.968;2022-10-13T11:19:42;12.10;;;8.13;;
46505;SDS011;32220;49.808;9.968;2022-10-13T11:22:18;11.37;;;7.53;;
46505;SDS011;32220;49.808;9.968;2022-10-13T11:24:54;9.37;;;7.03;;
46505;SDS011;32220;49.808;9.968;2022-10-13T11:27:26;10.57;;;7.97;;
46505;SDS011;32220;49.808;9.968;2022-10-13T11:42:42;11.03;;;6.60;;
46505;SDS011;32220;49.808;9.968;2022-10-13T11:45:46;8.37;;;6.90;;
46505;SDS011;32220;49.808;9.968;2022-10-13T11:48:44;8.70;;;6.73;;
46505;SDS011;32220;49.808;9.968;2022-10-13T11:51:38;11.33;;;5.73;;
46505;SDS011;32220;49.808;9.968;2022-10-13T11:54:20;8.17;;;5.80;;
46505;SDS011;32220;49.808;9.968;2022-10-13T11:56:55;6.80;;;5.90;;
46505;SDS011;32220;49.808;9.968;2022-10-13T11:59:25;7.67;;;5.93;;
46505;SDS011;32220;49.808;9.968;2022-10-13T12:01:56;9.77;;;7.40;;
46505;SDS011;32220;49.808;9.968;2022-10-13T12:04:26;7.73;;;5.80;;
46505;SDS011;32220;49.808;9.968;2022-10-13T12:06:56;9.33;;;5.93;;
46505;SDS011;32220;49.808;9.968;2022-10-13T12:09:26;9.30;;;6.00;;
46505;SDS011;32220;49.808;9.968;2022-10-13T12:11:58;10.33;;;5.53;;
46505;SDS011;32220;49.808;9.968;2022-10-13T12:14:30;10.00;;;6.63;;
46505;SDS011;32220;49.808;9.968;2022-10-13T12:17:02;7.67;;;5.40;;
46505;SDS011;32220;49.808;9.968;2022-10-13T12:19:30;7.17;;;5.30;;
46505;SDS011;32220;49.808;9.968;2022-10-13T12:21:59;7.57;;;4.83;;
46505;SDS011;32220;49.808;9.968;2022-10-13T12:24:28;8.53;;;5.90;;
46505;SDS011;32220;49.808;9.968;2022-10-13T12:26:58;11.73;;;6.60;;
46505;SDS011;32220;49.808;9.968;2022-10-13T12:29:37;8.37;;;5.40;;
46505;SDS011;32220;49.808;9.968;2022-10-13T12:32:16;7.37;;;5.20;;
46505;SDS011;32220;49.808;9.968;2022-10-13T12:34:47;7.07;;;5.10;;
46505;SDS011;32220;49.808;9.968;2022-10-13T12:37:17;7.73;;;5.13;;
46505;SDS011;32220;49.808;9.968;2022-10-13T12:39:52;8.10;;;5.00;;
46505;SDS011;32220;49.808;9.968;2022-10-13T12:42:26;8.10;;;5.83;;
46505;SDS011;32220;49.808;9.968;2022-10-13T12:44:56;8.30;;;5.37;;
46505;SDS011;32220;49.808;9.968;2022-10-13T12:47:34;8.13;;;5.37;;
46505;SDS011;32220;49.808;9.968;2022-10-13T12:50:21;5.63;;;4.77;;
46505;SDS011;32220;49.808;9.968;2022-10-13T12:53:03;8.17;;;5.13;;
46505;SDS011;32220;49.808;9.968;2022-10-13T12:55:44;10.80;;;6.13;;
46505;SDS011;32220;49.808;9.968;2022-10-13T12:58:18;8.60;;;5.77;;
46505;SDS011;32220;49.808;9.968;2022-10-13T13:03:55;10.43;;;5.83;;
46505;SDS011;32220;49.808;9.968;2022-10-13T13:06:27;8.57;;;6.07;;
46505;SDS011;32220;49.808;9.968;2022-10-13T13:09:17;11.90;;;6.23;;
46505;SDS011;32220;49.808;9.968;2022-10-13T13:11:48;7.03;;;5.40;;
46505;SDS011;32220;49.808;9.968;2022-10-13T13:14:43;8.07;;;5.93;;
46505;SDS011;32220;49.808;9.968;2022-10-13T13:17:19;9.43;;;5.97;;
46505;SDS011;32220;49.808;9.968;2022-10-13T13:19:53;7.53;;;5.00;;
46505;SDS011;32220;49.808;9.968;2022-10-13T13:22:22;7.23;;;5.60;;
46505;SDS011;32220;49.808;9.968;2022-10-13T13:24:51;7.93;;;6.13;;
46505;SDS011;32220;49.808;9.968;2022-10-13T13:27:20;7.23;;;6.50;;
46505;SDS011;32220;49.808;9.968;2022-10-13T13:29:53;8.63;;;6.00;;
46505;SDS011;32220;49.808;9.968;2022-10-13T13:32:22;8.13;;;5.70;;
46505;SDS011;32220;49.808;9.968;2022-10-13T13:34:50;6.13;;;5.53;;
46505;SDS011;32220;49.808;9.968;2022-10-13T13:37:27;6.33;;;5.00;;
46505;SDS011;32220;49.808;9.968;2022-10-13T13:39:58;6.83;;;4.70;;
46505;SDS011;32220;49.808;9.968;2022-10-13T13:42:26;6.47;;;5.23;;
46505;SDS011;32220;49.808;9.968;2022-10-13T13:44:57;6.73;;;5.30;;
46505;SDS011;32220;49.808;9.968;2022-10-13T13:47:26;10.00;;;5.80;;
46505;SDS011;32220;49.808;9.968;2022-10-13T13:49:55;9.33;;;6.23;;
46505;SDS011;32220;49.808;9.968;2022-10-13T13:52:23;8.57;;;6.10;;
46505;SDS011;32220;49.808;9.968;2022-10-13T13:54:51;13.50;;;8.53;;
46505;SDS011;32220;49.808;9.968;2022-10-13T13:57:21;8.77;;;6.43;;
46505;SDS011;32220;49.808;9.968;2022-10-13T13:59:48;7.77;;;5.90;;
46505;SDS011;32220;49.808;9.968;2022-10-13T14:02:19;9.30;;;5.77;;
46505;SDS011;32220;49.808;9.968;2022-10-13T14:04:47;8.93;;;5.80;;
46505;SDS011;32220;49.808;9.968;2022-10-13T14:07:15;7.07;;;6.23;;
46505;SDS011;32220;49.808;9.968;2022-10-13T14:09:45;6.57;;;5.10;;
46505;SDS011;32220;49.808;9.968;2022-10-13T14:12:13;8.63;;;5.23;;
46505;SDS011;32220;49.808;9.968;2022-10-13T14:14:41;6.43;;;4.77;;
46505;SDS011;32220;49.808;9.968;2022-10-13T14:17:09;5.73;;;5.10;;
46505;SDS011;32220;49.808;9.968;2022-10-13T14:19:38;5.50;;;4.40;;
46505;SDS011;32220;49.808;9.968;2022-10-13T14:22:08;10.43;;;6.60;;
46505;SDS011;32220;49.808;9.968;2022-10-13T14:24:36;8.17;;;5.03;;
46505;SDS011;32220;49.808;9.968;2022-10-13T14:27:03;5.90;;;4.80;;
46505;SDS011;32220;49.808;9.968;2022-10-13T14:29:33;7.70;;;4.93;;
46505;SDS011;32220;49.808;9.968;2022-10-13T14:32:02;6.90;;;4.47;;
46505;SDS011;32220;49.808;9.968;2022-10-13T14:34:30;8.20;;;5.10;;
46505;SDS011;32220;49.808;9.968;2022-10-13T14:37:00;7.70;;;5.27;;
46505;SDS011;32220;49.808;9.968;2022-10-13T14:39:27;5.83;;;4.87;;
46505;SDS011;32220;49.808;9.968;2022-10-13T14:41:55;9.57;;;6.50;;
46505;SDS011;32220;49.808;9.968;2022-10-13T14:44:23;6.50;;;4.80;;
46505;SDS011;32220;49.808;9.968;2022-10-13T14:46:51;7.83;;;6.10;;
46505;SDS011;32220;49.808;9.968;2022-10-13T14:49:19;14.60;;;6.30;;
46505;SDS011;32220;49.808;9.968;2022-10-13T14:51:47;7.07;;;5.83;;
46505;SDS011;32220;49.808;9.968;2022-10-13T14:54:16;6.70;;;5.93;;
46505;SDS011;32220;49.808;9.968;2022-10-13T14:56:44;5.97;;;5.03;;
46505;SDS011;32220;49.808;9.968;2022-10-13T14:59:12;6.90;;;6.23;;
46505;SDS011;32220;49.808;9.968;2022-10-13T15:01:41;5.67;;;5.00;;
46505;SDS011;32220;49.808;9.968;2022-10-13T15:04:09;9.37;;;5.80;;
46505;SDS011;32220;49.808;9.968;2022-10-13T15:06:37;7.23;;;4.93;;
46505;SDS011;32220;49.808;9.968;2022-10-13T15:09:06;7.43;;;5.80;;
46505;SDS011;32220;49.808;9.968;2022-10-13T15:11:38;6.23;;;5.63;;
46505;SDS011;32220;49.808;9.968;2022-10-13T15:14:06;8.20;;;5.30;;
46505;SDS011;32220;49.808;9.968;2022-10-13T15:16:34;5.83;;;5.23;;
46505;SDS011;32220;49.808;9.968;2022-10-13T15:19:03;9.80;;;5.90;;